Terminal Aerodrome Forecast
Issued by NWS

Home | Current Version | Previous Version | Graphics & Text | Print | Product List | Glossary Off
Versions: 1 2 3 4 5 6 7 8 9 10 11 12 13 14 15 16 17 18 19 20 21 22

000
FTUS43 KDDC 271136
TAFHYS
TAF
KHYS 271136Z 2712/2812 11007KT P6SM SCT003 BKN040
     FM271400 14008KT P6SM BKN008
     FM271800 14009KT P6SM VCTS BKN050CB
     FM280400 17006KT P6SM BKN150=

USA.gov is the U.S. government's official web portal to all federal, state and local government web resources and services.